Time;durP1;ratioP1;P1;durP2;ratioP2;P2;SDS_P1;SDS_P2;PMS_P1;PMS_P2;Temp;Humidity;BMP_temperature;BMP_pressure;BME280_temperature;BME280_humidity;BME280_pressure;Samples;Min_cycle;Max_cycle;Signal;HPM_P1;HPM_P2
2022/08/20 00:01:03;;;;;;;9.65;6.15;;;17.80;98.00;;;;;;5061006;28;20052;-66
2022/08/20 00:03:40;;;;;;;7.88;5.80;;;17.70;98.00;;;;;;5049306;28;20546;-66
2022/08/20 00:06:16;;;;;;;7.95;6.13;;;17.80;98.00;;;;;;5050137;28;20055;-66
2022/08/20 00:08:43;;;;;;;7.82;6.40;;;17.80;98.00;;;;;;5069159;28;20027;-67
2022/08/20 00:11:12;;;;;;;7.82;6.00;;;17.70;98.00;;;;;;5076297;28;20366;-67
2022/08/20 00:13:44;;;;;;;8.43;6.10;;;17.70;98.00;;;;;;5064669;28;20570;-65
2022/08/20 00:16:12;;;;;;;9.20;5.93;;;17.60;98.00;;;;;;5064708;28;20338;-66
2022/08/20 00:18:39;;;;;;;8.80;6.03;;;17.50;98.00;;;;;;5060631;28;20071;-66
2022/08/20 00:21:08;;;;;;;7.60;5.93;;;17.50;98.00;;;;;;5066854;28;20023;-66
2022/08/20 00:23:38;;;;;;;7.95;6.13;;;17.40;98.00;;;;;;5056233;28;20052;-66
2022/08/20 00:26:05;;;;;;;10.90;6.40;;;17.30;98.00;;;;;;5059052;28;20025;-65
2022/08/20 00:28:31;;;;;;;9.00;6.72;;;17.20;98.00;;;;;;5070899;28;20032;-65
2022/08/20 00:30:58;;;;;;;10.10;6.60;;;17.10;97.90;;;;;;5071520;28;20027;-66
2022/08/20 00:33:24;;;;;;;9.18;6.10;;;17.00;97.30;;;;;;5050990;28;20032;-66
2022/08/20 00:35:55;;;;;;;8.65;6.68;;;16.90;97.30;;;;;;5048960;28;20044;-66
2022/08/20 00:38:21;;;;;;;9.25;6.32;;;16.80;97.20;;;;;;5064910;28;20028;-67
2022/08/20 00:40:52;;;;;;;9.10;5.90;;;16.70;96.40;;;;;;5076653;28;20151;-66
2022/08/20 00:43:43;;;;;;;9.23;6.10;;;16.50;95.60;;;;;;5072076;28;20051;-65
2022/08/20 00:46:20;;;;;;;7.85;6.18;;;16.50;95.40;;;;;;5066414;28;20052;-65
2022/08/20 00:48:49;;;;;;;10.48;6.70;;;16.30;94.50;;;;;;5066130;28;20031;-67
2022/08/20 00:51:32;;;;;;;8.00;5.90;;;16.10;93.60;;;;;;5057780;28;20028;-67
2022/08/20 00:54:26;;;;;;;8.02;6.07;;;16.10;92.40;;;;;;5043618;28;20307;-65
2022/08/20 00:56:57;;;;;;;12.00;7.57;;;16.00;92.20;;;;;;5044108;28;20048;-66
2022/08/20 00:59:28;;;;;;;10.15;6.30;;;16.00;91.80;;;;;;5048974;28;20031;-67
2022/08/20 01:01:56;;;;;;;8.38;6.47;;;16.00;90.80;;;;;;5057215;28;20039;-67
2022/08/20 01:04:28;;;;;;;10.10;6.63;;;16.00;90.20;;;;;;5047788;28;20059;-66
2022/08/20 01:06:54;;;;;;;7.85;5.40;;;16.00;90.10;;;;;;5049112;28;20029;-67
2022/08/20 01:09:21;;;;;;;9.82;5.95;;;16.00;89.80;;;;;;5049002;28;21983;-67
2022/08/20 01:11:47;;;;;;;9.25;6.32;;;16.10;90.20;;;;;;5048784;28;20115;-66
2022/08/20 01:14:27;;;;;;;7.85;5.10;;;16.10;90.50;;;;;;5049751;28;20028;-65
2022/08/20 01:16:58;;;;;;;8.70;5.53;;;16.10;89.80;;;;;;5053710;28;20040;-66
2022/08/20 01:19:34;;;;;;;6.18;4.60;;;16.10;90.30;;;;;;5053271;28;20082;-67
2022/08/20 01:23:25;;;;;;;7.38;4.82;;;16.20;90.90;;;;;;5048599;28;20021;-67
2022/08/20 01:24:51;;;;;;;8.05;4.85;;;16.20;92.30;;;;;;5045597;28;20047;-65
2022/08/20 01:27:18;;;;;;;6.25;4.72;;;16.20;92.40;;;;;;5049965;28;20024;-67
2022/08/20 01:29:44;;;;;;;7.18;5.13;;;16.20;93.20;;;;;;5053176;28;20035;-66
2022/08/20 01:32:10;;;;;;;10.07;5.75;;;16.20;93.60;;;;;;5047994;28;20024;-66
2022/08/20 01:34:35;;;;;;;9.60;5.90;;;16.10;92.40;;;;;;5049942;28;20020;-66
2022/08/20 01:37:02;;;;;;;6.70;4.82;;;16.00;91.70;;;;;;5047541;28;20396;-66
2022/08/20 01:39:33;;;;;;;7.10;4.93;;;16.00;90.90;;;;;;5051280;28;20016;-66
2022/08/20 01:42:26;;;;;;;7.07;5.22;;;16.00;90.80;;;;;;5048817;28;20025;-67
2022/08/20 01:44:52;;;;;;;6.70;4.88;;;16.10;90.90;;;;;;5050260;28;20043;-67
2022/08/20 01:47:27;;;;;;;6.93;5.47;;;16.10;91.00;;;;;;5047736;28;20041;-67
2022/08/20 01:50:04;;;;;;;7.03;5.15;;;16.10;91.90;;;;;;5049948;28;20386;-66
2022/08/20 01:52:58;;;;;;;5.90;4.82;;;16.20;91.90;;;;;;5047258;28;20135;-67
2022/08/20 01:55:26;;;;;;;7.97;5.18;;;16.40;93.40;;;;;;5045653;28;20036;-65
2022/08/20 01:57:53;;;;;;;10.13;6.05;;;16.40;94.00;;;;;;5047740;28;20482;-67
2022/08/20 02:00:21;;;;;;;8.07;4.63;;;16.50;94.60;;;;;;5047294;28;20052;-66
2022/08/20 02:02:49;;;;;;;9.00;4.97;;;16.50;95.00;;;;;;5054208;28;20045;-65
2022/08/20 02:05:15;;;;;;;7.90;4.60;;;16.60;95.70;;;;;;5046069;28;20483;-67
2022/08/20 02:07:41;;;;;;;6.57;4.72;;;16.60;96.10;;;;;;5047473;28;20033;-67
2022/08/20 02:10:09;;;;;;;6.53;4.60;;;16.70;96.40;;;;;;5049134;28;20055;-65
2022/08/20 02:12:41;;;;;;;6.70;4.82;;;16.70;96.80;;;;;;5056461;28;21623;-66
2022/08/20 02:15:09;;;;;;;6.38;4.78;;;16.70;96.90;;;;;;5062619;28;20024;-67
2022/08/20 02:17:35;;;;;;;8.13;4.88;;;16.60;96.30;;;;;;5052566;28;20086;-66
2022/08/20 02:20:19;;;;;;;7.13;5.03;;;16.50;95.90;;;;;;5072052;28;20317;-66
2022/08/20 02:22:51;;;;;;;8.18;5.40;;;16.50;95.80;;;;;;5066108;28;20422;-65
2022/08/20 02:25:21;;;;;;;6.05;4.50;;;16.60;96.10;;;;;;5065950;28;20028;-66
2022/08/20 02:27:50;;;;;;;8.07;5.15;;;16.70;96.20;;;;;;5071967;28;20371;-66
2022/08/20 02:30:26;;;;;;;8.00;5.20;;;16.60;95.70;;;;;;5076952;28;20059;-67
2022/08/20 02:32:52;;;;;;;6.38;4.90;;;16.70;96.00;;;;;;5080238;28;20405;-67
2022/08/20 02:35:18;;;;;;;7.40;4.75;;;16.70;95.80;;;;;;5062937;28;20036;-67
2022/08/20 02:37:45;;;;;;;6.78;5.10;;;16.60;95.50;;;;;;5057201;28;20040;-66
2022/08/20 02:40:17;;;;;;;6.63;5.15;;;16.70;95.40;;;;;;5069157;28;20028;-66
2022/08/20 02:42:46;;;;;;;6.93;5.07;;;16.70;96.90;;;;;;5065019;28;20024;-67
2022/08/20 02:45:17;;;;;;;6.88;5.10;;;16.80;97.70;;;;;;5055888;28;20028;-66
2022/08/20 02:47:44;;;;;;;7.18;5.03;;;17.00;97.70;;;;;;5071840;28;20028;-66
2022/08/20 02:50:16;;;;;;;6.60;4.57;;;17.00;98.00;;;;;;5068203;28;20036;-66
2022/08/20 02:52:42;;;;;;;7.50;5.03;;;17.00;97.50;;;;;;5072419;28;20029;-65
2022/08/20 02:55:09;;;;;;;7.10;5.13;;;17.00;97.20;;;;;;5071962;28;20051;-65
2022/08/20 02:57:34;;;;;;;7.38;4.78;;;16.90;97.70;;;;;;5071041;28;20107;-66
2022/08/20 03:00:00;;;;;;;8.02;5.85;;;16.90;97.60;;;;;;5065721;28;20386;-65
2022/08/20 03:02:27;;;;;;;7.00;5.13;;;17.00;97.80;;;;;;5066611;28;20023;-65
2022/08/20 03:04:52;;;;;;;5.95;4.47;;;17.00;97.90;;;;;;5065705;28;20028;-68
2022/08/20 03:07:21;;;;;;;6.38;4.38;;;17.00;97.70;;;;;;5072184;28;20028;-66
2022/08/20 03:09:47;;;;;;;6.55;4.75;;;16.90;97.30;;;;;;5056388;28;20045;-67
2022/08/20 03:12:13;;;;;;;7.78;5.20;;;16.90;97.20;;;;;;5067653;28;20119;-67
2022/08/20 03:14:39;;;;;;;8.20;5.65;;;16.90;96.60;;;;;;5060773;28;20029;-65
2022/08/20 03:17:05;;;;;;;7.57;5.38;;;16.80;96.30;;;;;;5072438;28;20329;-67
2022/08/20 03:19:31;;;;;;;9.38;5.60;;;16.70;96.40;;;;;;5064310;28;20017;-67
2022/08/20 03:21:57;;;;;;;9.88;5.63;;;16.70;96.40;;;;;;5054563;28;20029;-66
2022/08/20 03:24:22;;;;;;;11.32;6.07;;;16.60;95.80;;;;;;5058714;28;20092;-67
2022/08/20 03:26:48;;;;;;;8.75;5.70;;;16.50;95.50;;;;;;5069173;28;20051;-67
2022/08/20 03:29:13;;;;;;;8.55;6.10;;;16.40;95.20;;;;;;5062959;28;20017;-66
2022/08/20 03:31:39;;;;;;;7.68;6.22;;;16.40;94.70;;;;;;5059572;28;20115;-66
2022/08/20 03:34:05;;;;;;;6.97;5.22;;;16.40;95.40;;;;;;5056170;28;20033;-67
2022/08/20 03:36:30;;;;;;;8.68;5.47;;;16.50;95.00;;;;;;5057210;28;20043;-67
2022/08/20 03:38:58;;;;;;;7.25;5.88;;;16.50;95.20;;;;;;5066225;28;20033;-66
2022/08/20 03:41:24;;;;;;;7.85;5.60;;;16.50;95.20;;;;;;5063311;28;20029;-66
2022/08/20 03:43:50;;;;;;;7.72;5.70;;;16.50;95.20;;;;;;5071400;28;20036;-66
2022/08/20 03:46:15;;;;;;;7.57;6.10;;;16.40;95.20;;;;;;5075706;28;20036;-66
2022/08/20 03:48:41;;;;;;;7.78;5.95;;;16.40;95.00;;;;;;5065188;28;20032;-66
2022/08/20 03:51:07;;;;;;;10.32;6.13;;;16.30;94.30;;;;;;5059495;28;20033;-68
2022/08/20 03:53:33;;;;;;;8.55;6.07;;;16.40;95.00;;;;;;5069759;28;20041;-67
2022/08/20 03:56:02;;;;;;;10.23;6.65;;;16.50;95.20;;;;;;5068257;28;20032;-66
2022/08/20 03:58:28;;;;;;;12.48;9.23;;;16.50;95.30;;;;;;5066697;28;20021;-67
2022/08/20 04:00:55;;;;;;;9.18;6.32;;;16.40;95.00;;;;;;5074417;28;20028;-66
2022/08/20 04:03:22;;;;;;;7.63;5.53;;;16.30;95.00;;;;;;5059521;28;20406;-67
2022/08/20 04:05:48;;;;;;;7.35;6.05;;;16.30;94.00;;;;;;5071742;28;20119;-66
2022/08/20 04:08:20;;;;;;;8.40;6.10;;;16.30;94.10;;;;;;5075986;28;20028;-66
2022/08/20 04:10:48;;;;;;;8.13;6.15;;;16.30;94.30;;;;;;5077768;28;20079;-67
2022/08/20 04:13:15;;;;;;;10.35;6.75;;;16.30;94.10;;;;;;5077847;28;20020;-65
2022/08/20 04:15:41;;;;;;;8.60;6.32;;;16.20;93.60;;;;;;5073950;28;20024;-66
2022/08/20 04:18:09;;;;;;;8.15;6.13;;;16.20;93.20;;;;;;5069768;28;20021;-65
2022/08/20 04:20:38;;;;;;;9.90;6.65;;;16.20;93.70;;;;;;5060673;28;20017;-65
2022/08/20 04:23:04;;;;;;;8.20;5.88;;;16.30;94.00;;;;;;5062303;28;20420;-65
2022/08/20 04:25:32;;;;;;;9.15;6.13;;;16.30;93.60;;;;;;5062205;28;20029;-66
2022/08/20 04:27:59;;;;;;;9.07;7.38;;;16.30;93.70;;;;;;5068531;28;20410;-67
2022/08/20 04:30:25;;;;;;;9.00;6.03;;;16.40;94.40;;;;;;5076207;28;20035;-65
2022/08/20 04:32:52;;;;;;;9.55;6.80;;;16.40;94.50;;;;;;5062373;28;20037;-66
2022/08/20 04:35:18;;;;;;;9.07;6.60;;;16.40;94.40;;;;;;5058849;28;20872;-67
2022/08/20 04:37:45;;;;;;;8.25;6.78;;;16.40;94.80;;;;;;5075901;28;20052;-67
2022/08/20 04:42:59;;;;;;;10.18;7.05;;;16.40;94.90;;;;;;5077668;28;20043;-67
2022/08/20 04:45:27;;;;;;;8.65;6.75;;;16.50;95.30;;;;;;5077146;28;20021;-68
2022/08/20 04:47:53;;;;;;;8.27;6.78;;;16.50;95.20;;;;;;5066263;28;20086;-67
2022/08/20 04:50:20;;;;;;;8.32;6.60;;;16.50;95.40;;;;;;5059019;28;20430;-66
2022/08/20 04:52:48;;;;;;;7.97;5.72;;;16.60;95.30;;;;;;5072431;28;20033;-66
2022/08/20 04:55:17;;;;;;;9.27;6.72;;;16.60;96.10;;;;;;5075893;28;20032;-66
2022/08/20 04:57:44;;;;;;;9.80;6.30;;;16.70;96.60;;;;;;5071811;28;20104;-66
2022/08/20 05:00:15;;;;;;;10.20;7.15;;;16.70;96.40;;;;;;5077021;28;20025;-66
2022/08/20 05:02:41;;;;;;;9.80;6.97;;;16.70;96.30;;;;;;5077126;28;20021;-65
2022/08/20 05:05:08;;;;;;;10.95;7.00;;;16.70;96.30;;;;;;5065706;28;20021;-67
2022/08/20 05:07:39;;;;;;;9.25;6.78;;;16.70;96.00;;;;;;5076023;28;20028;-67
2022/08/20 05:10:06;;;;;;;10.98;6.57;;;16.70;95.60;;;;;;5075148;28;20052;-65
2022/08/20 05:12:32;;;;;;;8.02;6.43;;;16.80;96.50;;;;;;5076427;28;20028;-64
2022/08/20 05:14:58;;;;;;;10.23;7.05;;;16.90;96.40;;;;;;5076832;28;20115;-65
2022/08/20 05:17:23;;;;;;;7.65;5.68;;;17.00;96.90;;;;;;5076075;28;20107;-65
2022/08/20 05:19:51;;;;;;;9.30;6.90;;;17.10;96.80;;;;;;5075589;28;20350;-66
2022/08/20 05:22:17;;;;;;;9.07;5.43;;;17.30;97.90;;;;;;5077347;28;20074;-67
2022/08/20 05:24:43;;;;;;;7.55;5.30;;;17.40;98.00;;;;;;5076240;28;20032;-69
2022/08/20 05:27:08;;;;;;;7.18;5.20;;;17.40;98.00;;;;;;5076477;28;20039;-67
2022/08/20 05:29:37;;;;;;;6.70;4.60;;;17.40;97.40;;;;;;5077115;28;20024;-67
2022/08/20 05:32:03;;;;;;;8.10;4.65;;;17.40;97.80;;;;;;5076572;28;20028;-67
2022/08/20 05:34:28;;;;;;;6.50;4.75;;;17.40;97.30;;;;;;5057000;28;20025;-66
2022/08/20 05:36:54;;;;;;;8.20;6.13;;;17.50;97.40;;;;;;5071329;28;20283;-66
2022/08/20 05:39:21;;;;;;;8.90;5.65;;;17.60;98.00;;;;;;5075147;28;21610;-67
2022/08/20 05:41:50;;;;;;;6.82;5.22;;;17.70;98.00;;;;;;5075977;28;20029;-67
2022/08/20 05:44:16;;;;;;;6.95;5.32;;;17.80;98.00;;;;;;5076907;28;20413;-66
2022/08/20 05:46:44;;;;;;;7.15;5.20;;;18.00;98.00;;;;;;5075478;28;20032;-66
2022/08/20 05:49:12;;;;;;;10.18;5.93;;;18.10;98.00;;;;;;5072069;28;20070;-67
2022/08/20 05:51:38;;;;;;;10.00;5.55;;;18.10;98.00;;;;;;5076633;28;20107;-66
2022/08/20 05:54:07;;;;;;;7.00;5.55;;;18.10;98.00;;;;;;5075189;28;20112;-67
2022/08/20 05:56:32;;;;;;;9.52;6.68;;;18.10;98.00;;;;;;5076453;28;20052;-68
2022/08/20 05:59:03;;;;;;;10.75;6.70;;;18.20;98.00;;;;;;5076563;28;20024;-66
2022/08/20 06:01:29;;;;;;;9.38;6.97;;;18.20;98.00;;;;;;5075472;28;20021;-66
2022/08/20 06:06:40;;;;;;;9.23;6.47;;;18.20;98.00;;;;;;5068547;28;20043;-66
2022/08/20 06:09:06;;;;;;;9.93;7.45;;;18.30;98.00;;;;;;5074259;28;20048;-67
2022/08/20 06:11:32;;;;;;;9.40;6.13;;;18.30;98.00;;;;;;5076395;28;20086;-67
2022/08/20 06:13:58;;;;;;;9.13;6.65;;;18.20;98.00;;;;;;5076211;28;20025;-67
2022/08/20 06:16:24;;;;;;;9.00;6.38;;;18.20;98.00;;;;;;5075682;28;20372;-67
2022/08/20 06:18:53;;;;;;;9.40;6.90;;;18.20;98.00;;;;;;5076428;28;20382;-67
2022/08/20 06:21:19;;;;;;;10.13;6.57;;;18.20;98.00;;;;;;5075869;28;20468;-67
2022/08/20 06:23:45;;;;;;;9.05;6.53;;;18.20;98.00;;;;;;5075105;28;20028;-66
2022/08/20 06:26:10;;;;;;;10.50;6.68;;;18.30;98.00;;;;;;5074390;28;20111;-66
2022/08/20 06:28:36;;;;;;;11.85;7.35;;;18.30;98.00;;;;;;5061557;28;20062;-66
2022/08/20 06:31:02;;;;;;;8.93;6.50;;;18.30;98.00;;;;;;5075309;28;20058;-67
2022/08/20 06:33:27;;;;;;;8.32;5.95;;;18.40;98.00;;;;;;5075804;28;20020;-67
2022/08/20 06:35:55;;;;;;;8.13;6.00;;;18.50;98.00;;;;;;5075553;28;20020;-66
2022/08/20 06:38:21;;;;;;;7.85;5.95;;;18.60;98.00;;;;;;5074323;28;20024;-67
2022/08/20 06:40:47;;;;;;;10.20;6.50;;;18.70;98.00;;;;;;5076075;28;20424;-67
2022/08/20 06:43:16;;;;;;;10.32;6.40;;;18.70;98.00;;;;;;5074768;28;20016;-67
2022/08/20 06:45:44;;;;;;;8.77;6.43;;;18.70;98.00;;;;;;5075525;28;20445;-67
2022/08/20 06:48:12;;;;;;;10.35;6.57;;;18.70;98.00;;;;;;5075859;28;20068;-67
2022/08/20 06:50:44;;;;;;;8.55;6.30;;;18.70;98.00;;;;;;5075874;28;20029;-66
2022/08/20 06:53:20;;;;;;;9.68;6.75;;;18.60;98.00;;;;;;5075929;28;20115;-67
2022/08/20 06:55:52;;;;;;;9.52;6.57;;;18.50;98.00;;;;;;5075742;28;20024;-67
2022/08/20 06:58:20;;;;;;;9.45;7.20;;;18.50;98.00;;;;;;5074440;28;20025;-66
2022/08/20 07:00:48;;;;;;;11.27;6.90;;;18.50;98.00;;;;;;5075505;28;20081;-66
2022/08/20 07:03:14;;;;;;;9.50;7.00;;;18.50;98.00;;;;;;5075847;28;20478;-67
2022/08/20 07:05:42;;;;;;;14.35;6.88;;;18.50;98.00;;;;;;5075526;28;20025;-66
2022/08/20 07:08:13;;;;;;;9.15;6.93;;;18.60;98.00;;;;;;5075588;28;20033;-67
2022/08/20 07:10:42;;;;;;;10.23;6.75;;;18.70;98.00;;;;;;5074970;28;20040;-67
2022/08/20 07:13:10;;;;;;;8.25;6.78;;;18.80;98.00;;;;;;5074063;28;20329;-67
2022/08/20 07:15:35;;;;;;;12.23;7.57;;;18.70;98.00;;;;;;5075222;28;20103;-67
2022/08/20 07:18:03;;;;;;;10.23;6.63;;;18.60;98.00;;;;;;5075410;28;20371;-67
2022/08/20 07:20:31;;;;;;;10.98;6.65;;;18.60;98.00;;;;;;5075451;28;20029;-67
2022/08/20 07:22:57;;;;;;;8.70;6.32;;;18.80;98.00;;;;;;5079642;28;20035;-67
2022/08/20 07:25:23;;;;;;;8.48;6.22;;;18.80;98.00;;;;;;5078139;28;20028;-67
2022/08/20 07:28:02;;;;;;;8.63;5.72;;;18.80;98.00;;;;;;5071667;28;20037;-67
2022/08/20 07:33:15;;;;;;;8.70;5.93;;;19.20;98.00;;;;;;5079494;28;20048;-67
2022/08/20 07:35:41;;;;;;;9.27;5.75;;;19.30;98.00;;;;;;5079357;28;20422;-67
2022/08/20 07:38:16;;;;;;;8.00;5.78;;;19.50;98.00;;;;;;5078977;28;20021;-67
2022/08/20 07:40:42;;;;;;;9.00;5.22;;;19.50;98.00;;;;;;5079075;28;20142;-67
2022/08/20 07:43:09;;;;;;;8.70;5.82;;;19.60;98.00;;;;;;5061921;28;20112;-67
2022/08/20 07:45:35;;;;;;;9.27;5.18;;;19.70;98.00;;;;;;5059189;28;20032;-67
2022/08/20 07:48:10;;;;;;;8.05;5.53;;;19.80;98.00;;;;;;5066783;28;20033;-67
2022/08/20 07:50:36;;;;;;;16.25;5.10;;;20.00;98.00;;;;;;5078536;28;20021;-66
2022/08/20 07:53:02;;;;;;;9.00;5.20;;;20.10;97.60;;;;;;5078946;28;20035;-67
2022/08/20 07:55:29;;;;;;;7.97;4.65;;;20.30;97.50;;;;;;5077749;28;20036;-67
2022/08/20 07:57:56;;;;;;;7.95;5.20;;;20.40;96.70;;;;;;5077607;28;20028;-67
2022/08/20 08:00:24;;;;;;;8.05;4.78;;;20.50;96.60;;;;;;5078859;28;20021;-67
2022/08/20 08:02:50;;;;;;;7.13;4.63;;;20.80;96.50;;;;;;5078867;28;20028;-67
2022/08/20 08:05:18;;;;;;;7.68;4.53;;;21.10;95.20;;;;;;5078789;28;20325;-67
2022/08/20 08:07:48;;;;;;;7.78;4.28;;;21.40;94.50;;;;;;5078422;28;20368;-66
2022/08/20 08:10:18;;;;;;;10.90;4.95;;;21.80;94.70;;;;;;5076705;28;20044;-66
2022/08/20 08:12:54;;;;;;;6.47;4.03;;;22.60;90.90;;;;;;5075154;28;20539;-66
2022/08/20 08:15:31;;;;;;;8.02;4.78;;;22.90;90.60;;;;;;5078656;28;20020;-66
2022/08/20 08:18:09;;;;;;;9.80;4.47;;;23.10;88.90;;;;;;5078419;28;20024;-68
2022/08/20 08:20:40;;;;;;;7.72;4.45;;;22.70;90.50;;;;;;5078439;28;20020;-67
2022/08/20 08:23:07;;;;;;;9.25;4.88;;;21.90;91.80;;;;;;5078476;28;20045;-67
2022/08/20 08:25:33;;;;;;;6.95;5.10;;;21.30;93.90;;;;;;5077678;28;20483;-67
2022/08/20 08:28:02;;;;;;;8.57;5.60;;;21.20;94.80;;;;;;5066741;28;20033;-66
2022/08/20 08:30:27;;;;;;;7.07;5.63;;;20.90;94.60;;;;;;5077580;28;20028;-67
2022/08/20 08:33:39;;;;;;;7.60;5.40;;;21.00;95.20;;;;;;5077691;28;20028;-67
2022/08/20 08:35:46;;;;;;;8.00;5.38;;;21.20;95.00;;;;;;5069511;28;20418;-67
2022/08/20 08:38:12;;;;;;;9.90;5.53;;;21.40;94.60;;;;;;5076950;28;20020;-67
2022/08/20 08:40:39;;;;;;;10.07;5.45;;;21.60;93.70;;;;;;5077141;28;20063;-67
2022/08/20 08:43:05;;;;;;;8.80;4.72;;;21.70;93.00;;;;;;5076648;28;20299;-67
2022/08/20 08:45:41;;;;;;;8.18;5.07;;;21.60;92.80;;;;;;5078144;28;20050;-66
2022/08/20 08:48:06;;;;;;;8.45;5.38;;;21.30;93.60;;;;;;5077783;28;20437;-67
2022/08/20 08:50:33;;;;;;;9.55;5.10;;;21.40;93.10;;;;;;5077716;28;20032;-67
2022/08/20 08:53:01;;;;;;;7.20;4.97;;;21.50;93.10;;;;;;5078178;28;20108;-67
2022/08/20 08:55:28;;;;;;;6.95;4.68;;;21.60;93.00;;;;;;5076598;28;20031;-67
2022/08/20 08:57:58;;;;;;;7.97;4.53;;;21.80;92.50;;;;;;5076269;28;20094;-67
2022/08/20 09:00:27;;;;;;;7.47;5.03;;;21.70;92.70;;;;;;5077367;28;20020;-67
2022/08/20 09:03:01;;;;;;;6.80;4.55;;;22.10;92.10;;;;;;5077673;28;20033;-66
2022/08/20 09:05:39;;;;;;;9.35;4.22;;;22.20;90.80;;;;;;5075667;28;20035;-66
2022/08/20 09:08:10;;;;;;;12.20;4.53;;;22.50;91.10;;;;;;5063896;28;20029;-67
2022/08/20 09:10:37;;;;;;;5.32;3.72;;;23.60;88.90;;;;;;5076170;28;20044;-67
2022/08/20 09:13:04;;;;;;;6.85;3.90;;;24.70;83.50;;;;;;5077621;28;20107;-67
2022/08/20 09:15:30;;;;;;;7.68;3.55;;;25.30;82.80;;;;;;5077571;28;20036;-67
2022/08/20 09:17:58;;;;;;;7.25;3.42;;;26.10;80.50;;;;;;5077077;28;20020;-67
2022/08/20 09:20:24;;;;;;;5.03;3.33;;;26.20;78.60;;;;;;5076667;28;20029;-66
2022/08/20 09:22:49;;;;;;;5.45;3.38;;;26.00;78.70;;;;;;5073264;28;20436;-67
2022/08/20 09:25:16;;;;;;;4.90;3.10;;;26.10;79.90;;;;;;5076207;28;20093;-67
2022/08/20 09:27:42;;;;;;;6.15;3.10;;;26.60;79.00;;;;;;5077075;28;20033;-67
2022/08/20 09:30:11;;;;;;;7.47;3.70;;;27.50;76.60;;;;;;5077198;28;20314;-67
2022/08/20 09:32:37;;;;;;;8.48;3.25;;;26.70;77.10;;;;;;5074834;28;20052;-67
2022/08/20 09:35:03;;;;;;;5.95;3.10;;;26.90;77.00;;;;;;5073617;28;20071;-68
2022/08/20 09:37:31;;;;;;;5.90;3.38;;;26.90;77.00;;;;;;5075430;28;20459;-67
2022/08/20 09:39:58;;;;;;;7.40;3.30;;;27.00;76.70;;;;;;5077038;28;20024;-67
2022/08/20 09:42:30;;;;;;;6.68;3.80;;;27.50;76.60;;;;;;5075357;28;20025;-69
2022/08/20 09:45:09;;;;;;;6.50;3.60;;;28.20;74.20;;;;;;5072379;28;20035;-67
2022/08/20 09:47:39;;;;;;;5.20;2.95;;;28.40;73.50;;;;;;5067328;28;20039;-68
2022/08/20 09:50:05;;;;;;;5.22;3.10;;;28.70;72.50;;;;;;5074982;28;20052;-67
2022/08/20 09:52:34;;;;;;;6.38;3.47;;;28.30;72.40;;;;;;5076234;28;20388;-68
2022/08/20 09:55:21;;;;;;;8.82;2.95;;;27.90;74.00;;;;;;5074378;28;20033;-68
2022/08/20 09:57:48;;;;;;;4.78;3.10;;;28.50;72.90;;;;;;5043781;28;20039;-66
2022/08/20 10:00:15;;;;;;;5.72;2.65;;;27.20;74.00;;;;;;5065550;28;20021;-67
2022/08/20 10:02:41;;;;;;;3.72;2.15;;;26.40;77.80;;;;;;5059034;28;20177;-67
2022/08/20 10:05:07;;;;;;;4.20;2.53;;;24.50;81.80;;;;;;5061164;28;20104;-67
2022/08/20 10:07:33;;;;;;;7.47;2.38;;;23.80;84.70;;;;;;5064818;28;20127;-67
2022/08/20 10:10:00;;;;;;;4.22;2.45;;;23.40;85.80;;;;;;5072924;28;20356;-67
2022/08/20 10:12:26;;;;;;;4.60;2.47;;;22.80;86.00;;;;;;5075681;28;20111;-66
2022/08/20 10:14:51;;;;;;;4.68;2.50;;;21.90;89.10;;;;;;5073955;28;20158;-67
2022/08/20 10:17:17;;;;;;;3.30;1.77;;;21.00;91.80;;;;;;5074903;28;20039;-67
2022/08/20 10:19:42;;;;;;;3.88;2.15;;;20.20;94.20;;;;;;5072249;28;20040;-65
2022/08/20 10:22:08;;;;;;;3.45;2.13;;;19.70;96.40;;;;;;5075863;28;20016;-66
2022/08/20 10:24:36;;;;;;;4.20;2.30;;;19.20;97.40;;;;;;5057034;28;20422;-69
2022/08/20 10:27:02;;;;;;;6.80;2.60;;;18.70;98.00;;;;;;5075315;28;20028;-69
2022/08/20 10:29:29;;;;;;;4.80;2.28;;;18.30;98.00;;;;;;5075433;28;20039;-68
2022/08/20 10:31:55;;;;;;;3.72;2.25;;;18.20;96.90;;;;;;5075765;28;20021;-69
2022/08/20 10:34:22;;;;;;;4.50;2.17;;;18.10;96.50;;;;;;5059918;28;20099;-67
2022/08/20 10:36:48;;;;;;;5.85;2.15;;;18.10;97.80;;;;;;5071185;28;20485;-68
2022/08/20 10:39:17;;;;;;;4.38;1.95;;;18.00;97.50;;;;;;5073231;28;20111;-67
2022/08/20 10:41:45;;;;;;;4.43;2.35;;;18.10;97.20;;;;;;5073765;28;20107;-67
2022/08/20 10:44:11;;;;;;;4.38;2.42;;;18.30;97.90;;;;;;5072382;28;20028;-67
2022/08/20 10:46:37;;;;;;;4.00;2.40;;;18.50;98.00;;;;;;5067794;28;20031;-67
2022/08/20 10:49:05;;;;;;;5.40;2.60;;;18.90;98.00;;;;;;5072627;28;20119;-67
2022/08/20 10:51:31;;;;;;;3.60;2.20;;;19.40;98.00;;;;;;5073693;28;20406;-67
2022/08/20 10:53:56;;;;;;;3.50;1.80;;;19.80;98.00;;;;;;5073895;28;20033;-67
2022/08/20 10:56:23;;;;;;;3.65;1.83;;;20.30;98.00;;;;;;5075055;28;20031;-67
2022/08/20 10:58:48;;;;;;;4.15;1.95;;;21.20;97.20;;;;;;5074830;28;20028;-67
2022/08/20 11:01:14;;;;;;;8.30;2.08;;;21.90;94.90;;;;;;5075039;28;20028;-66
2022/08/20 11:03:40;;;;;;;3.05;1.50;;;22.40;93.30;;;;;;5072924;28;20029;-66
2022/08/20 11:06:05;;;;;;;2.70;1.50;;;22.40;93.70;;;;;;5073431;28;20030;-66
2022/08/20 11:08:31;;;;;;;2.85;1.27;;;23.00;93.00;;;;;;5068878;28;20089;-67
2022/08/20 11:10:57;;;;;;;2.92;1.35;;;23.60;91.40;;;;;;5074505;28;20349;-68
2022/08/20 11:13:23;;;;;;;3.40;1.25;;;23.90;89.70;;;;;;5074507;28;20451;-69
2022/08/20 11:15:48;;;;;;;2.70;1.33;;;24.00;89.20;;;;;;5074853;28;20388;-69
2022/08/20 11:18:14;;;;;;;4.20;1.38;;;23.50;88.40;;;;;;5074180;28;20025;-68
2022/08/20 11:20:51;;;;;;;3.03;1.50;;;22.40;90.30;;;;;;5075222;28;20104;-67
2022/08/20 11:23:16;;;;;;;3.78;2.10;;;21.20;93.70;;;;;;5073207;28;20027;-68
2022/08/20 11:25:42;;;;;;;4.40;2.05;;;20.20;97.10;;;;;;5073568;28;20028;-68
2022/08/20 11:28:08;;;;;;;4.00;2.00;;;19.50;96.20;;;;;;5075183;28;20397;-68
2022/08/20 11:30:37;;;;;;;3.38;1.77;;;18.90;96.20;;;;;;5074516;28;20021;-68
2022/08/20 11:33:04;;;;;;;2.83;1.33;;;18.60;94.40;;;;;;5074286;28;20090;-67
2022/08/20 11:35:32;;;;;;;3.90;2.13;;;18.30;97.70;;;;;;5074685;28;20033;-68
2022/08/20 11:37:58;;;;;;;4.10;2.10;;;17.90;96.30;;;;;;5064486;28;20365;-68
2022/08/20 11:40:26;;;;;;;3.28;1.75;;;17.70;94.10;;;;;;5072398;28;20028;-68
2022/08/20 11:42:54;;;;;;;3.75;1.75;;;17.60;94.70;;;;;;5074427;28;20029;-69
2022/08/20 11:45:20;;;;;;;2.08;1.15;;;17.50;93.60;;;;;;5074552;28;20029;-69
2022/08/20 11:47:45;;;;;;;5.15;1.60;;;17.40;93.70;;;;;;5074204;28;20028;-69
2022/08/20 11:50:15;;;;;;;3.90;1.25;;;17.30;92.80;;;;;;5073986;28;20347;-68
2022/08/20 11:52:43;;;;;;;3.47;1.20;;;17.30;92.40;;;;;;5064368;28;20079;-69
2022/08/20 11:55:11;;;;;;;2.65;1.35;;;17.20;92.80;;;;;;5070656;28;20075;-70
2022/08/20 11:57:41;;;;;;;3.03;1.35;;;17.10;91.70;;;;;;5074422;28;20021;-69
2022/08/20 12:00:13;;;;;;;2.58;1.02;;;17.20;88.60;;;;;;5074957;28;20109;-68
2022/08/20 12:02:39;;;;;;;5.32;1.88;;;17.30;88.80;;;;;;5073838;28;20017;-68
2022/08/20 12:05:06;;;;;;;3.13;1.30;;;17.40;88.00;;;;;;5073624;28;20379;-69
2022/08/20 12:07:31;;;;;;;3.40;1.45;;;17.50;89.40;;;;;;5074500;28;20421;-69
2022/08/20 12:09:57;;;;;;;2.90;1.13;;;17.40;91.70;;;;;;5074064;28;20069;-69
2022/08/20 12:12:23;;;;;;;4.20;1.35;;;17.50;90.40;;;;;;5078219;28;20078;-69
2022/08/20 12:14:53;;;;;;;3.65;1.20;;;17.70;90.70;;;;;;5077466;28;20024;-68
2022/08/20 12:17:25;;;;;;;2.58;1.10;;;17.90;93.20;;;;;;5067743;28;20317;-68
2022/08/20 12:19:59;;;;;;;3.03;1.10;;;18.10;92.80;;;;;;5078217;28;20389;-69
2022/08/20 12:22:26;;;;;;;2.58;1.30;;;18.40;93.50;;;;;;5078237;28;20029;-68
2022/08/20 12:24:54;;;;;;;1.70;1.10;;;18.60;94.80;;;;;;5069529;28;20078;-69
2022/08/20 12:27:24;;;;;;;2.03;1.20;;;18.70;97.00;;;;;;5058389;28;20021;-68
2022/08/20 12:29:52;;;;;;;3.15;1.63;;;18.50;97.80;;;;;;5058281;28;20033;-69
2022/08/20 12:32:20;;;;;;;3.05;1.48;;;18.40;97.00;;;;;;5058314;28;20069;-68
2022/08/20 12:34:46;;;;;;;3.30;1.52;;;18.40;95.30;;;;;;5074030;28;20071;-69
2022/08/20 12:37:15;;;;;;;3.15;1.55;;;18.50;95.60;;;;;;5076676;28;20044;-69
2022/08/20 12:39:46;;;;;;;3.05;1.65;;;18.50;97.00;;;;;;5074161;28;20104;-69
2022/08/20 12:42:15;;;;;;;3.25;1.55;;;18.50;96.60;;;;;;5076597;28;20062;-68
2022/08/20 12:44:43;;;;;;;2.38;1.45;;;18.40;97.30;;;;;;5072329;28;20089;-68
2022/08/20 12:47:12;;;;;;;4.00;1.70;;;18.50;96.60;;;;;;5067326;28;20052;-69
2022/08/20 12:49:40;;;;;;;2.85;1.60;;;18.80;94.30;;;;;;5071716;28;20020;-68
2022/08/20 12:52:07;;;;;;;3.42;1.60;;;19.10;95.40;;;;;;5079155;28;20025;-68
2022/08/20 12:54:33;;;;;;;2.88;1.52;;;19.30;95.80;;;;;;5074199;28;20422;-69
2022/08/20 12:57:01;;;;;;;4.95;1.92;;;19.60;94.70;;;;;;5077670;28;20104;-69
2022/08/20 12:59:27;;;;;;;3.17;1.30;;;19.80;98.00;;;;;;5077058;28;20286;-69